createdAt,value
2022-10-16T00:05:54.468Z,14.50
2022-10-16T00:16:22.528Z,12.80
2022-10-16T00:26:53.094Z,13.40
2022-10-16T00:37:20.594Z,15.20
2022-10-16T00:47:50.661Z,17.50
2022-10-16T00:58:18.385Z,18.00
2022-10-16T01:08:57.513Z,13.70
2022-10-16T01:19:36.617Z,16.80
2022-10-16T01:30:12.071Z,17.00
2022-10-16T01:40:43.586Z,17.20
2022-10-16T01:51:14.486Z,16.00
2022-10-16T02:01:47.534Z,14.60
2022-10-16T02:12:19.308Z,15.90
2022-10-16T02:22:49.569Z,14.10
2022-10-16T02:33:18.693Z,12.60
2022-10-16T02:43:46.238Z,13.80
2022-10-16T02:54:14.126Z,16.00
2022-10-16T03:04:42.072Z,12.30
2022-10-16T03:25:36.338Z,10.40
2022-10-16T03:36:04.032Z,9.50
2022-10-16T03:46:31.669Z,8.20
2022-10-16T03:56:59.241Z,9.70
2022-10-16T04:07:26.982Z,9.80
2022-10-16T04:17:55.213Z,10.60
2022-10-16T04:38:48.910Z,9.00
2022-10-16T04:49:16.397Z,9.70
2022-10-16T04:59:43.970Z,9.40
2022-10-16T05:10:11.857Z,11.00
2022-10-16T05:20:39.386Z,9.00
2022-10-16T05:31:10.255Z,9.50
2022-10-16T05:41:37.819Z,8.80
2022-10-16T05:52:05.578Z,7.80
2022-10-16T06:02:33.118Z,8.10
2022-10-16T06:13:00.712Z,9.20
2022-10-16T06:23:30.728Z,9.20
2022-10-16T06:33:59.146Z,9.70
2022-10-16T06:44:26.863Z,10.20
2022-10-16T06:54:54.641Z,10.60
2022-10-16T07:15:48.390Z,12.30
2022-10-16T07:26:16.933Z,11.50
2022-10-16T07:36:44.959Z,12.00
2022-10-16T07:47:12.835Z,10.30
2022-10-16T07:57:40.333Z,10.00
2022-10-16T08:08:08.030Z,11.10
2022-10-16T08:29:01.819Z,8.10
2022-10-16T08:50:02.997Z,9.30
2022-10-16T09:00:32.148Z,8.80
2022-10-16T09:11:06.365Z,8.50
2022-10-16T09:21:37.876Z,8.70
2022-10-16T09:32:15.011Z,7.60
2022-10-16T09:42:43.244Z,7.80
2022-10-16T09:53:14.909Z,7.10
2022-10-16T10:03:44.819Z,7.00
2022-10-16T10:14:22.241Z,8.70
2022-10-16T10:24:59.306Z,6.70
2022-10-16T10:35:42.671Z,7.80
2022-10-16T10:46:18.526Z,8.90
2022-10-16T10:56:54.411Z,8.20
2022-10-16T11:07:28.339Z,7.30
2022-10-16T11:18:00.376Z,7.10
2022-10-16T11:28:34.915Z,8.50
2022-10-16T11:39:14.241Z,7.00
2022-10-16T11:49:44.909Z,8.70
2022-10-16T12:00:21.360Z,8.30
2022-10-16T12:10:50.051Z,7.80
2022-10-16T12:21:20.319Z,8.60
2022-10-16T12:31:57.273Z,7.80
2022-10-16T12:42:34.547Z,6.90
2022-10-16T12:53:03.109Z,8.60
2022-10-16T13:03:48.918Z,7.90
2022-10-16T13:14:35.024Z,8.50
2022-10-16T13:25:17.513Z,8.90
2022-10-16T13:35:55.626Z,8.80
2022-10-16T13:46:25.608Z,7.80
2022-10-16T13:57:03.355Z,9.40
2022-10-16T14:07:38.862Z,8.30
2022-10-16T14:18:07.294Z,8.50
2022-10-16T14:28:35.389Z,8.90
2022-10-16T14:39:08.851Z,9.00
2022-10-16T14:49:36.874Z,8.80
2022-10-16T15:00:04.975Z,8.10
2022-10-16T15:10:33.725Z,9.10
2022-10-16T15:21:01.433Z,10.70
2022-10-16T15:31:29.033Z,10.10
2022-10-16T15:41:56.602Z,8.70
2022-10-16T15:52:24.592Z,10.20
2022-10-16T16:02:56.190Z,9.70
2022-10-16T16:13:23.717Z,8.80
2022-10-16T16:23:51.225Z,10.00
2022-10-16T16:34:19.841Z,9.90
2022-10-16T16:44:47.373Z,9.70
2022-10-16T16:55:15.131Z,8.70
2022-10-16T17:05:42.780Z,9.10
2022-10-16T17:16:10.923Z,13.10
2022-10-16T17:26:41.543Z,34.20
2022-10-16T17:37:10.178Z,49.70
2022-10-16T17:47:41.898Z,40.30
2022-10-16T17:58:09.871Z,17.30
2022-10-16T18:08:38.481Z,16.70
2022-10-16T18:19:06.581Z,19.30
2022-10-16T18:29:34.130Z,16.70
2022-10-16T18:40:01.656Z,12.40
2022-10-16T18:50:29.273Z,17.90
2022-10-16T19:00:56.811Z,19.00
2022-10-16T19:21:56.428Z,14.40
2022-10-16T19:32:24.134Z,16.90
2022-10-16T19:53:18.031Z,16.90
2022-10-16T20:14:12.174Z,13.50
2022-10-16T20:24:40.622Z,17.20
2022-10-16T20:35:09.469Z,19.10
2022-10-16T20:45:37.059Z,16.60
2022-10-16T20:56:05.322Z,16.60
2022-10-16T21:06:35.484Z,19.70
2022-10-16T21:17:03.105Z,21.00
2022-10-16T21:27:30.699Z,19.20
2022-10-16T21:37:58.323Z,17.60
2022-10-16T21:48:26.410Z,24.30
2022-10-16T21:58:54.050Z,30.00
2022-10-16T22:09:21.805Z,34.10
2022-10-16T22:30:16.108Z,32.10
2022-10-16T22:51:15.725Z,30.90
2022-10-16T23:01:45.081Z,24.80
2022-10-16T23:22:38.825Z,14.40
2022-10-16T23:33:06.518Z,18.90
2022-10-16T23:43:34.278Z,19.70
2022-10-16T23:54:01.897Z,22.60
